createdAt,value
2023-02-03T00:01:06.101Z,98403.56
2023-02-03T00:03:33.772Z,98398.81
2023-02-03T00:06:03.877Z,98394.84
2023-02-03T00:08:32.100Z,98397.75
2023-02-03T00:11:00.434Z,98389.28
2023-02-03T00:13:28.022Z,98397.22
2023-02-03T00:15:55.512Z,98392.47
2023-02-03T00:18:23.040Z,98393.78
2023-02-03T00:20:50.473Z,98381.91
2023-02-03T00:23:18.036Z,98380.03
2023-02-03T00:25:45.672Z,98392.44
2023-02-03T00:28:13.193Z,98381.88
2023-02-03T00:30:40.895Z,98381.88
2023-02-03T00:33:08.470Z,98390.63
2023-02-03T00:35:39.848Z,98395.63
2023-02-03T00:38:07.411Z,98386.13
2023-02-03T00:40:35.463Z,98393.78
2023-02-03T00:43:03.019Z,98387.16
2023-02-03T00:45:30.646Z,98396.69
2023-02-03T00:47:58.283Z,98391.91
2023-02-03T00:50:26.023Z,98386.91
2023-02-03T00:52:53.611Z,98384.53
2023-02-03T00:55:21.140Z,98392.47
2023-02-03T00:57:48.689Z,98386.38
2023-02-03T01:00:16.733Z,98381.34
2023-02-03T01:02:44.403Z,98382.69
2023-02-03T01:05:12.455Z,98403.03
2023-02-03T01:07:40.019Z,98387.97
2023-02-03T01:10:08.047Z,98396.94
2023-02-03T01:12:35.609Z,98392.19
2023-02-03T01:15:03.138Z,98395.09
2023-02-03T01:17:31.735Z,98396.41
2023-02-03T01:19:59.460Z,98396.66
2023-02-03T01:22:32.338Z,98401.19
2023-02-03T01:24:59.856Z,98395.59
2023-02-03T01:27:27.460Z,98400.09
2023-02-03T01:29:57.014Z,98391.41
2023-02-03T01:32:24.640Z,98396.94
2023-02-03T01:34:52.147Z,98395.88
2023-02-03T01:37:19.724Z,98392.19
2023-02-03T01:39:48.194Z,98396.16
2023-02-03T01:42:34.534Z,98401.44
2023-02-03T01:45:02.266Z,98400.91
2023-02-03T01:47:36.918Z,98393.78
2023-02-03T01:50:14.216Z,98405.41
2023-02-03T01:52:44.388Z,98401.72
2023-02-03T01:55:17.779Z,98407.28
2023-02-03T01:57:54.541Z,98407.28
2023-02-03T02:00:22.443Z,98413.09
2023-02-03T02:02:50.827Z,98419.44
2023-02-03T02:05:48.713Z,98415.47
2023-02-03T02:08:18.703Z,98408.84
2023-02-03T02:10:46.393Z,98415.19
2023-02-03T02:13:16.081Z,98412.28
2023-02-03T02:16:11.291Z,98412.81
2023-02-03T02:18:42.269Z,98411.78
2023-02-03T02:21:31.400Z,98418.13
2023-02-03T02:24:23.330Z,98406.75
2023-02-03T02:27:03.070Z,98411.75
2023-02-03T02:30:05.932Z,98413.59
2023-02-03T02:32:48.979Z,98406.75
2023-02-03T02:35:21.107Z,98398.81
2023-02-03T02:38:13.115Z,98404.34
2023-02-03T02:41:00.738Z,98409.38
2023-02-03T02:43:28.361Z,98403.03
2023-02-03T02:46:31.230Z,98405.16
2023-02-03T02:49:21.988Z,98408.03
2023-02-03T02:51:53.663Z,98409.13
2023-02-03T02:54:25.706Z,98414.94
2023-02-03T02:56:58.318Z,98413.38
2023-02-03T02:59:28.245Z,98418.09
2023-02-03T03:01:55.902Z,98417.31
2023-02-03T03:04:26.913Z,98416.78
2023-02-03T03:07:08.814Z,98421.00
2023-02-03T03:09:43.284Z,98413.34
2023-02-03T03:12:16.774Z,98425.25
2023-02-03T03:14:49.517Z,98427.91
2023-02-03T03:17:24.538Z,98418.63
2023-02-03T03:19:56.610Z,98419.97
2023-02-03T03:22:37.132Z,98430.28
2023-02-03T03:25:15.191Z,98426.81
2023-02-03T03:28:05.347Z,98428.69
2023-02-03T03:30:38.165Z,98418.63
2023-02-03T03:33:08.101Z,98429.22
2023-02-03T03:35:59.699Z,98437.16
2023-02-03T03:38:36.783Z,98439.25
2023-02-03T03:41:16.204Z,98444.56
2023-02-03T03:43:47.605Z,98451.44
2023-02-03T03:46:22.145Z,98446.94
2023-02-03T03:49:01.186Z,98438.22
2023-02-03T03:51:37.507Z,98439.00
2023-02-03T03:54:09.757Z,98441.63
2023-02-03T03:56:45.472Z,98438.72
2023-02-03T03:59:17.529Z,98439.78
2023-02-03T04:01:45.859Z,98431.56
2023-02-03T04:04:15.334Z,98435.53
2023-02-03T04:06:42.917Z,98426.25
2023-02-03T04:09:10.607Z,98437.88
2023-02-03T04:11:56.378Z,98436.53
2023-02-03T04:14:23.895Z,98440.47
2023-02-03T04:16:51.447Z,98450.53
2023-02-03T04:19:18.829Z,98440.41
2023-02-03T04:21:46.374Z,98450.75
2023-02-03T04:24:14.457Z,98443.56
2023-02-03T04:26:41.965Z,98437.22
2023-02-03T04:29:09.834Z,98443.84
2023-02-03T04:31:38.894Z,98448.59
2023-02-03T04:34:06.854Z,98450.19
2023-02-03T04:36:34.529Z,98457.88
2023-02-03T04:39:02.087Z,98451.53
2023-02-03T04:41:29.820Z,98453.88
2023-02-03T04:43:57.545Z,98459.69
2023-02-03T04:46:25.066Z,98464.97
2023-02-03T04:48:52.560Z,98459.94
2023-02-03T04:51:22.245Z,98453.56
2023-02-03T04:53:52.451Z,98453.53
2023-02-03T04:56:19.947Z,98456.19
2023-02-03T04:58:47.477Z,98460.16
2023-02-03T05:01:14.985Z,98459.06
2023-02-03T05:03:42.622Z,98455.13
2023-02-03T05:06:10.204Z,98463.59
2023-02-03T05:08:37.708Z,98456.69
2023-02-03T05:11:06.651Z,98459.59
2023-02-03T05:13:34.500Z,98457.22
2023-02-03T05:16:02.176Z,98463.81
2023-02-03T05:18:29.828Z,98456.09
2023-02-03T05:20:57.487Z,98449.69
2023-02-03T05:23:25.137Z,98444.94
2023-02-03T05:25:52.657Z,98456.28
2023-02-03T05:28:20.273Z,98450.66
2023-02-03T05:30:47.794Z,98452.22
2023-02-03T05:33:15.703Z,98457.19
2023-02-03T05:35:43.433Z,98448.41
2023-02-03T05:38:10.909Z,98440.69
2023-02-03T05:40:57.025Z,98440.16
2023-02-03T05:43:24.522Z,98436.38
2023-02-03T05:45:52.068Z,98432.88
2023-02-03T05:48:19.634Z,98426.22
2023-02-03T05:50:47.146Z,98424.59
2023-02-03T05:53:14.880Z,98423.47
2023-02-03T05:55:42.421Z,98432.19
2023-02-03T05:58:10.035Z,98432.31
2023-02-03T06:00:37.787Z,98441.28
2023-02-03T06:03:05.890Z,98437.22
2023-02-03T06:05:35.158Z,98442.44
2023-02-03T06:08:02.698Z,98442.38
2023-02-03T06:10:30.337Z,98437.00
2023-02-03T06:12:57.955Z,98434.44
2023-02-03T06:15:25.847Z,98447.63
2023-02-03T06:17:53.308Z,98448.13
2023-02-03T06:20:21.359Z,98445.63
2023-02-03T06:22:48.903Z,98442.41
2023-02-03T06:25:16.545Z,98440.56
2023-02-03T06:27:44.120Z,98441.47
2023-02-03T06:30:12.404Z,98445.16
2023-02-03T06:32:39.889Z,98434.16
2023-02-03T06:35:07.749Z,98443.66
2023-02-03T06:37:38.823Z,98431.34
2023-02-03T06:40:06.948Z,98437.56
2023-02-03T06:42:34.507Z,98434.75
2023-02-03T06:45:02.025Z,98439.56
2023-02-03T06:47:31.462Z,98435.94
2023-02-03T06:49:58.991Z,98432.56
2023-02-03T06:52:26.681Z,98431.38
2023-02-03T06:54:54.210Z,98435.84
2023-02-03T06:57:21.743Z,98429.88
2023-02-03T06:59:49.255Z,98431.25
2023-02-03T07:02:17.218Z,98426.66
2023-02-03T07:04:45.424Z,98423.22
2023-02-03T07:07:13.485Z,98430.88
2023-02-03T07:09:41.596Z,98424.81
2023-02-03T07:12:10.405Z,98429.16
2023-02-03T07:14:39.634Z,98428.38
2023-02-03T07:17:09.120Z,98421.84
2023-02-03T07:19:36.602Z,98427.41
2023-02-03T07:22:05.164Z,98427.38
2023-02-03T07:25:18.570Z,98417.47
2023-02-03T07:27:52.344Z,98417.63
2023-02-03T07:30:20.351Z,98418.31
2023-02-03T07:32:51.903Z,98415.00
2023-02-03T07:35:20.531Z,98415.47
2023-02-03T07:37:48.090Z,98415.16
2023-02-03T07:40:25.497Z,98421.78
2023-02-03T07:42:56.133Z,98414.22
2023-02-03T07:45:25.139Z,98412.41
2023-02-03T07:47:52.598Z,98412.28
2023-02-03T07:50:20.144Z,98425.06
2023-02-03T07:52:47.558Z,98419.97
2023-02-03T07:55:15.013Z,98421.94
2023-02-03T07:57:46.711Z,98425.19
2023-02-03T08:00:16.444Z,98426.94
2023-02-03T08:02:44.393Z,98427.84
2023-02-03T08:05:13.011Z,98417.81
2023-02-03T08:07:41.543Z,98420.44
2023-02-03T08:10:13.602Z,98420.25
2023-02-03T08:12:46.865Z,98426.00
2023-02-03T08:15:15.205Z,98423.56
2023-02-03T08:17:43.338Z,98405.53
2023-02-03T08:20:13.114Z,98418.34
2023-02-03T08:22:40.650Z,98422.44
2023-02-03T08:25:09.174Z,98423.91
2023-02-03T08:27:36.878Z,98427.72
2023-02-03T08:30:04.967Z,98429.88
2023-02-03T08:32:34.060Z,98421.91
2023-02-03T08:35:01.673Z,98432.88
2023-02-03T08:37:32.065Z,98436.88
2023-02-03T08:40:00.583Z,98432.81
2023-02-03T08:42:28.373Z,98438.34
2023-02-03T08:44:56.101Z,98434.81
2023-02-03T08:47:23.881Z,98441.72
2023-02-03T08:49:51.436Z,98429.34
2023-02-03T08:52:19.391Z,98437.81
2023-02-03T08:54:47.618Z,98434.53
2023-02-03T08:57:15.691Z,98439.63
2023-02-03T08:59:44.379Z,98438.91
2023-02-03T09:02:16.912Z,98436.28
2023-02-03T09:04:45.405Z,98420.78
2023-02-03T09:07:15.747Z,98426.53
2023-02-03T09:09:43.939Z,98420.16
2023-02-03T09:12:13.281Z,98417.88
2023-02-03T09:14:43.765Z,98419.44
2023-02-03T09:17:13.174Z,98424.84
2023-02-03T09:19:40.748Z,98421.72
2023-02-03T09:22:08.347Z,98423.63
2023-02-03T09:24:36.762Z,98416.66
2023-02-03T09:27:04.452Z,98417.78
2023-02-03T09:29:34.363Z,98407.53
2023-02-03T09:32:07.281Z,98417.81
2023-02-03T09:34:34.969Z,98409.63
2023-02-03T09:37:02.655Z,98408.34
2023-02-03T09:39:30.479Z,98411.34
2023-02-03T09:42:09.438Z,98416.56
2023-02-03T09:44:55.141Z,98412.28
2023-02-03T09:47:29.145Z,98413.09
2023-02-03T09:50:02.801Z,98410.72
2023-02-03T09:52:42.287Z,98414.69
2023-02-03T09:55:54.282Z,98412.78
2023-02-03T09:58:26.348Z,98407.13
2023-02-03T10:00:58.469Z,98408.53
2023-02-03T10:03:46.474Z,98407.13
2023-02-03T10:06:32.297Z,98409.00
2023-02-03T10:09:18.964Z,98414.03
2023-02-03T10:12:05.160Z,98402.22
2023-02-03T10:15:03.471Z,98408.84
2023-02-03T10:17:36.764Z,98408.19
2023-02-03T10:20:22.583Z,98408.66
2023-02-03T10:22:57.527Z,98408.31
2023-02-03T10:25:28.815Z,98402.94
2023-02-03T10:28:01.693Z,98400.41
2023-02-03T10:30:38.580Z,98417.09
2023-02-03T10:33:18.340Z,98415.03
2023-02-03T10:36:15.595Z,98416.75
2023-02-03T10:38:45.921Z,98417.72
2023-02-03T10:41:15.170Z,98414.53
2023-02-03T10:43:48.903Z,98413.59
2023-02-03T10:46:20.900Z,98410.91
2023-02-03T10:48:52.000Z,98412.41
2023-02-03T10:51:21.403Z,98417.19
2023-02-03T10:53:55.731Z,98425.94
2023-02-03T10:56:31.047Z,98424.59
2023-02-03T10:59:00.788Z,98419.94
2023-02-03T11:01:44.154Z,98421.16
2023-02-03T11:04:28.497Z,98424.34
2023-02-03T11:07:06.479Z,98419.88
2023-02-03T11:09:37.851Z,98410.75
2023-02-03T11:12:17.153Z,98425.75
2023-02-03T11:14:54.784Z,98425.47
2023-02-03T11:17:27.403Z,98419.56
2023-02-03T11:20:07.569Z,98421.66
2023-02-03T11:22:38.802Z,98421.97
2023-02-03T11:25:24.818Z,98421.53
2023-02-03T11:27:56.157Z,98419.88
2023-02-03T11:30:27.181Z,98420.06
2023-02-03T11:32:55.207Z,98419.09
2023-02-03T11:35:29.381Z,98420.97
2023-02-03T11:38:03.271Z,98419.09
2023-02-03T11:40:34.661Z,98414.28
2023-02-03T11:43:06.155Z,98420.59
2023-02-03T11:45:43.723Z,98421.69
2023-02-03T11:48:11.155Z,98417.16
2023-02-03T11:50:54.407Z,98416.56
2023-02-03T11:53:56.873Z,98417.16
2023-02-03T11:56:52.707Z,98413.50
2023-02-03T11:59:43.298Z,98411.53
2023-02-03T12:02:48.631Z,98406.88
2023-02-03T12:05:28.436Z,98403.81
2023-02-03T12:08:10.108Z,98406.56
2023-02-03T12:10:51.619Z,98402.53
2023-02-03T12:13:21.715Z,98401.91
2023-02-03T12:16:22.022Z,98415.16
2023-02-03T12:19:11.572Z,98409.41
2023-02-03T12:22:29.420Z,98409.41
2023-02-03T12:25:18.549Z,98410.75
2023-02-03T12:27:57.200Z,98406.47
2023-02-03T12:30:47.103Z,98405.91
2023-02-03T12:33:28.099Z,98404.53
2023-02-03T12:36:04.658Z,98408.44
2023-02-03T12:38:44.141Z,98410.00
2023-02-03T12:41:21.145Z,98407.28
2023-02-03T12:43:52.920Z,98407.91
2023-02-03T12:46:32.627Z,98417.00
2023-02-03T12:49:12.373Z,98409.47
2023-02-03T12:51:47.088Z,98414.16
2023-02-03T12:54:26.101Z,98416.75
2023-02-03T12:57:01.263Z,98407.41
2023-02-03T12:59:33.159Z,98404.66
2023-02-03T13:02:18.278Z,98402.50
2023-02-03T13:04:56.736Z,98413.19
2023-02-03T13:07:30.222Z,98403.75
2023-02-03T13:10:04.133Z,98412.06
2023-02-03T13:12:36.493Z,98409.94
2023-02-03T13:15:28.523Z,98410.75
2023-02-03T13:18:05.562Z,98408.50
2023-02-03T13:20:39.373Z,98412.31
2023-02-03T13:23:11.678Z,98421.56
2023-02-03T13:25:54.179Z,98414.78
2023-02-03T13:28:33.626Z,98418.50
2023-02-03T13:31:37.200Z,98415.06
2023-02-03T13:34:29.285Z,98413.50
2023-02-03T13:37:13.243Z,98410.81
2023-02-03T13:39:54.900Z,98395.63
2023-02-03T13:42:22.894Z,98403.38
2023-02-03T13:45:13.574Z,98402.09
2023-02-03T13:47:48.496Z,98401.72
2023-02-03T13:50:30.041Z,98399.50
2023-02-03T13:53:03.087Z,98399.84
2023-02-03T13:55:39.553Z,98385.22
2023-02-03T13:58:29.233Z,98396.28
2023-02-03T14:00:56.889Z,98392.19
2023-02-03T14:03:27.437Z,98390.06
2023-02-03T14:06:01.318Z,98379.03
2023-02-03T14:08:28.769Z,98392.91
2023-02-03T14:11:33.692Z,98389.50
2023-02-03T14:14:10.308Z,98391.13
2023-02-03T14:16:42.226Z,98388.06
2023-02-03T14:19:33.596Z,98389.97
2023-02-03T14:22:18.068Z,98390.72
2023-02-03T14:24:50.011Z,98396.41
2023-02-03T14:27:29.334Z,98394.09
2023-02-03T14:30:19.900Z,98392.56
2023-02-03T14:32:58.445Z,98396.28
2023-02-03T14:35:37.913Z,98402.13
2023-02-03T14:38:14.966Z,98402.72
2023-02-03T14:40:56.017Z,98407.97
2023-02-03T14:43:50.559Z,98401.31
2023-02-03T14:46:54.904Z,98397.88
2023-02-03T14:49:51.774Z,98411.19
2023-02-03T14:53:23.700Z,98391.69
2023-02-03T14:56:17.278Z,98389.50
2023-02-03T14:59:02.516Z,98398.22
2023-02-03T15:01:36.252Z,98400.66
2023-02-03T15:04:12.897Z,98394.31
2023-02-03T15:06:46.418Z,98400.19
2023-02-03T15:09:23.446Z,98393.78
2023-02-03T15:11:51.273Z,98387.84
2023-02-03T15:14:25.313Z,98394.75
2023-02-03T15:17:01.736Z,98397.00
2023-02-03T15:19:49.622Z,98395.19
2023-02-03T15:22:26.684Z,98397.59
2023-02-03T15:24:58.187Z,98389.50
2023-02-03T15:27:28.359Z,98391.88
2023-02-03T15:29:59.604Z,98402.16
2023-02-03T15:32:30.642Z,98398.69
2023-02-03T15:34:59.486Z,98394.44
2023-02-03T15:37:37.744Z,98393.31
2023-02-03T15:40:16.798Z,98387.50
2023-02-03T15:43:05.897Z,98391.78
2023-02-03T15:45:35.720Z,98392.59
2023-02-03T15:48:37.172Z,98399.13
2023-02-03T15:51:12.217Z,98392.78
2023-02-03T15:54:01.479Z,98406.03
2023-02-03T15:56:44.779Z,98396.28
2023-02-03T15:59:35.045Z,98389.34
2023-02-03T16:02:27.375Z,98391.78
2023-02-03T16:04:55.426Z,98393.66
2023-02-03T16:07:29.593Z,98387.91
2023-02-03T16:09:58.764Z,98403.25
2023-02-03T16:12:28.894Z,98394.31
2023-02-03T16:14:57.928Z,98396.50
2023-02-03T16:17:33.353Z,98401.25
2023-02-03T16:20:13.044Z,98403.81
2023-02-03T16:22:40.544Z,98407.78
2023-02-03T16:25:23.316Z,98410.34
2023-02-03T16:28:39.948Z,98406.38
2023-02-03T16:31:36.697Z,98394.69
2023-02-03T16:34:33.551Z,98395.72
2023-02-03T16:37:19.396Z,98392.13
2023-02-03T16:40:05.705Z,98392.38
2023-02-03T16:42:59.810Z,98381.22
2023-02-03T16:45:45.965Z,98369.16
2023-02-03T16:48:32.360Z,98395.31
2023-02-03T16:51:07.300Z,98399.00
2023-02-03T16:53:35.184Z,98382.63
2023-02-03T16:56:07.257Z,98384.47
2023-02-03T16:58:35.109Z,98385.84
2023-02-03T17:01:05.781Z,98391.41
2023-02-03T17:03:35.799Z,98384.84
2023-02-03T17:06:06.897Z,98390.91
2023-02-03T17:08:35.346Z,98384.03
2023-02-03T17:11:05.952Z,98389.03
2023-02-03T17:13:34.122Z,98384.03
2023-02-03T17:16:01.870Z,98393.56
2023-02-03T17:18:29.544Z,98388.06
2023-02-03T17:21:05.865Z,98377.78
2023-02-03T17:23:33.589Z,98395.78
2023-02-03T17:26:01.417Z,98395.50
2023-02-03T17:28:29.286Z,98389.69
2023-02-03T17:31:06.020Z,98387.06
2023-02-03T17:33:35.324Z,98397.09
2023-02-03T17:36:07.973Z,98387.84
2023-02-03T17:55:15.864Z,98398.03
2023-02-03T17:57:43.689Z,98385.06
2023-02-03T18:00:11.921Z,98395.63
2023-02-03T18:02:43.527Z,98398.28
2023-02-03T18:05:11.473Z,98392.44
2023-02-03T18:07:39.042Z,98394.03
2023-02-03T18:10:06.778Z,98387.97
2023-02-03T18:12:34.519Z,98397.75
2023-02-03T18:15:02.249Z,98397.75
2023-02-03T18:17:31.095Z,98402.22
2023-02-03T18:20:00.898Z,98404.34
2023-02-03T18:22:28.787Z,98392.44
2023-02-03T18:24:56.424Z,98398.00
2023-02-03T18:27:23.963Z,98398.81
2023-02-03T18:29:51.566Z,98398.28
2023-02-03T18:32:20.250Z,98404.34
2023-02-03T18:34:47.999Z,98406.75
2023-02-03T18:37:15.781Z,98404.88
2023-02-03T18:39:43.339Z,98397.22
2023-02-03T18:42:11.226Z,98393.50
2023-02-03T18:44:39.910Z,98391.41
2023-02-03T18:47:08.081Z,98394.31
2023-02-03T18:49:45.399Z,98392.72
2023-02-03T18:52:12.906Z,98400.66
2023-02-03T18:54:40.461Z,98401.44
2023-02-03T18:57:13.230Z,98393.50
2023-02-03T18:59:40.797Z,98403.56
2023-02-03T19:02:11.252Z,98391.69
2023-02-03T19:04:41.008Z,98398.81
2023-02-03T19:07:08.577Z,98407.78
2023-02-03T19:09:39.944Z,98388.22
2023-02-03T19:12:08.716Z,98405.94
2023-02-03T19:14:36.680Z,98398.25
2023-02-03T19:17:04.870Z,98402.97
2023-02-03T19:19:32.354Z,98403.97
2023-02-03T19:21:59.983Z,98399.25
2023-02-03T19:24:27.582Z,98405.84
2023-02-03T19:26:55.623Z,98403.22
2023-02-03T19:29:23.117Z,98405.38
2023-02-03T19:31:51.020Z,98407.50
2023-02-03T19:34:18.889Z,98410.66
2023-02-03T19:36:47.414Z,98395.88
2023-02-03T19:39:15.549Z,98401.13
2023-02-03T19:41:43.156Z,98402.19
2023-02-03T19:44:10.721Z,98396.13
2023-02-03T19:46:38.497Z,98413.84
2023-02-03T19:49:13.509Z,98417.03
2023-02-03T19:51:42.795Z,98410.44
2023-02-03T19:54:15.820Z,98371.53
2023-02-03T19:56:44.985Z,98396.66
2023-02-03T19:59:12.978Z,98403.56
2023-02-03T20:01:40.650Z,98400.38
2023-02-03T20:04:08.281Z,98394.03
2023-02-03T20:06:36.329Z,98402.50
2023-02-03T20:09:06.397Z,98399.84
2023-02-03T20:11:38.391Z,98392.72
2023-02-03T20:14:14.140Z,98381.06
2023-02-03T20:16:43.052Z,98399.31
2023-02-03T20:19:10.844Z,98397.72
2023-02-03T20:21:38.539Z,98385.84
2023-02-03T20:24:06.015Z,98399.03
2023-02-03T20:26:33.594Z,98393.50
2023-02-03T20:29:01.156Z,98399.31
2023-02-03T20:31:29.006Z,98396.13
2023-02-03T20:33:56.676Z,98394.31
2023-02-03T20:36:24.334Z,98390.84
2023-02-03T20:38:52.157Z,98390.84
2023-02-03T20:41:19.983Z,98390.59
2023-02-03T20:43:48.297Z,98397.47
2023-02-03T20:46:18.998Z,98392.16
2023-02-03T20:48:46.596Z,98393.19
2023-02-03T20:51:16.128Z,98394.53
2023-02-03T20:53:44.640Z,98397.41
2023-02-03T20:56:18.446Z,98400.06
2023-02-03T20:58:46.204Z,98398.19
2023-02-03T21:01:22.116Z,98403.22
2023-02-03T21:04:07.971Z,98383.88
2023-02-03T21:06:36.167Z,98381.75
2023-02-03T21:09:18.432Z,98364.03
2023-02-03T21:11:46.077Z,98391.75
2023-02-03T21:14:23.986Z,98393.94
2023-02-03T21:16:54.325Z,98384.94
2023-02-03T21:19:33.829Z,98391.56
2023-02-03T21:22:17.697Z,98394.97
2023-02-03T21:24:59.189Z,98383.59
2023-02-03T21:27:32.528Z,98393.06
2023-02-03T21:30:02.613Z,98393.78
2023-02-03T21:32:40.472Z,98385.63
2023-02-03T21:35:31.195Z,98385.88
2023-02-03T21:38:04.304Z,98388.41
2023-02-03T21:40:34.674Z,98397.06
2023-02-03T21:43:03.536Z,98384.38
2023-02-03T21:45:42.358Z,98392.38
2023-02-03T21:48:29.675Z,98390.81
2023-02-03T21:51:01.546Z,98386.06
2023-02-03T21:53:33.409Z,98383.97
2023-02-03T21:56:25.178Z,98391.19
2023-02-03T21:58:57.690Z,98385.59
2023-02-03T22:01:27.010Z,98385.31
2023-02-03T22:03:56.206Z,98388.78
2023-02-03T22:06:26.538Z,98379.56
2023-02-03T22:08:56.888Z,98381.69
2023-02-03T22:11:27.878Z,98378.00
2023-02-03T22:13:55.945Z,98382.50
2023-02-03T22:16:24.144Z,98366.09
2023-02-03T22:18:52.395Z,98371.94
2023-02-03T22:21:20.058Z,98371.13
2023-02-03T22:23:48.456Z,98370.13
2023-02-03T22:26:17.607Z,98368.53
2023-02-03T22:28:45.534Z,98370.13
2023-02-03T22:31:13.838Z,98355.28
2023-02-03T22:33:42.393Z,98373.03
2023-02-03T22:36:11.037Z,98370.94
2023-02-03T22:38:40.159Z,98370.94
2023-02-03T22:41:09.538Z,98366.94
2023-02-03T22:43:37.156Z,98366.94
2023-02-03T22:46:07.070Z,98340.75
2023-02-03T22:48:34.784Z,98364.06
2023-02-03T22:51:02.315Z,98376.72
2023-02-03T22:53:29.940Z,98362.75
2023-02-03T22:55:57.499Z,98360.63
2023-02-03T22:58:25.018Z,98363.25
2023-02-03T23:00:52.480Z,98358.78
2023-02-03T23:03:20.062Z,98364.06
2023-02-03T23:05:47.618Z,98361.44
2023-02-03T23:08:15.114Z,98366.72
2023-02-03T23:10:42.620Z,98372.81
2023-02-03T23:13:10.186Z,98370.41
2023-02-03T23:15:37.989Z,98365.44
2023-02-03T23:18:06.025Z,98372.81
2023-02-03T23:20:33.879Z,98362.78
2023-02-03T23:23:01.373Z,98362.78
2023-02-03T23:25:28.927Z,98359.63
2023-02-03T23:27:56.610Z,98368.09
2023-02-03T23:30:24.271Z,98371.28
2023-02-03T23:32:51.759Z,98368.38
2023-02-03T23:35:37.692Z,98370.47
2023-02-03T23:38:05.257Z,98375.22
2023-02-03T23:40:33.180Z,98369.94
2023-02-03T23:43:00.918Z,98367.56
2023-02-03T23:45:28.521Z,98366.78
2023-02-03T23:47:56.110Z,98367.31
2023-02-03T23:50:23.790Z,98371.81
2023-02-03T23:52:51.349Z,98364.66
2023-02-03T23:55:21.327Z,98375.47
2023-02-03T23:57:48.908Z,98376.28
